sensor_id;sensor_type;location;lat;lon;timestamp;P1;durP1;ratioP1;P2;durP2;ratioP2
32196;SDS011;18697;42.770;23.400;2023-01-29T00:01:03;27.77;;;14.00;;
32196;SDS011;18697;42.770;23.400;2023-01-29T00:03:29;26.13;;;14.52;;
32196;SDS011;18697;42.770;23.400;2023-01-29T00:05:55;22.40;;;12.70;;
32196;SDS011;18697;42.770;23.400;2023-01-29T00:08:20;23.10;;;13.23;;
32196;SDS011;18697;42.770;23.400;2023-01-29T00:10:45;21.13;;;12.88;;
32196;SDS011;18697;42.770;23.400;2023-01-29T00:13:11;25.30;;;13.43;;
32196;SDS011;18697;42.770;23.400;2023-01-29T00:15:37;24.17;;;13.02;;
32196;SDS011;18697;42.770;23.400;2023-01-29T00:18:02;21.80;;;13.20;;
32196;SDS011;18697;42.770;23.400;2023-01-29T00:20:28;21.15;;;12.80;;
32196;SDS011;18697;42.770;23.400;2023-01-29T00:22:53;21.13;;;13.07;;
32196;SDS011;18697;42.770;23.400;2023-01-29T00:25:18;24.80;;;13.73;;
32196;SDS011;18697;42.770;23.400;2023-01-29T00:27:44;26.38;;;13.55;;
32196;SDS011;18697;42.770;23.400;2023-01-29T00:30:09;24.17;;;13.23;;
32196;SDS011;18697;42.770;23.400;2023-01-29T00:32:40;23.73;;;13.18;;
32196;SDS011;18697;42.770;23.400;2023-01-29T00:35:06;21.90;;;14.00;;
32196;SDS011;18697;42.770;23.400;2023-01-29T00:37:33;20.48;;;12.52;;
32196;SDS011;18697;42.770;23.400;2023-01-29T00:39:59;24.05;;;13.23;;
32196;SDS011;18697;42.770;23.400;2023-01-29T00:42:24;24.00;;;12.65;;
32196;SDS011;18697;42.770;23.400;2023-01-29T00:45:09;22.90;;;13.70;;
32196;SDS011;18697;42.770;23.400;2023-01-29T00:47:35;20.75;;;12.30;;
32196;SDS011;18697;42.770;23.400;2023-01-29T00:50:04;26.50;;;13.38;;
32196;SDS011;18697;42.770;23.400;2023-01-29T00:52:32;23.58;;;13.90;;
32196;SDS011;18697;42.770;23.400;2023-01-29T00:54:58;22.83;;;13.00;;
32196;SDS011;18697;42.770;23.400;2023-01-29T00:57:26;23.95;;;12.88;;
32196;SDS011;18697;42.770;23.400;2023-01-29T00:59:53;25.45;;;12.98;;
32196;SDS011;18697;42.770;23.400;2023-01-29T01:02:18;23.23;;;13.60;;
32196;SDS011;18697;42.770;23.400;2023-01-29T01:05:03;22.77;;;12.07;;
32196;SDS011;18697;42.770;23.400;2023-01-29T01:07:31;20.80;;;12.90;;
32196;SDS011;18697;42.770;23.400;2023-01-29T01:09:57;21.55;;;12.82;;
32196;SDS011;18697;42.770;23.400;2023-01-29T01:12:40;20.95;;;11.50;;
32196;SDS011;18697;42.770;23.400;2023-01-29T01:15:06;20.88;;;11.55;;
32196;SDS011;18697;42.770;23.400;2023-01-29T01:17:32;26.90;;;13.07;;
32196;SDS011;18697;42.770;23.400;2023-01-29T01:19:57;21.58;;;13.90;;
32196;SDS011;18697;42.770;23.400;2023-01-29T01:22:22;22.35;;;13.27;;
32196;SDS011;18697;42.770;23.400;2023-01-29T01:24:48;23.58;;;13.07;;
32196;SDS011;18697;42.770;23.400;2023-01-29T01:27:13;21.20;;;11.70;;
32196;SDS011;18697;42.770;23.400;2023-01-29T01:29:39;19.88;;;11.52;;
32196;SDS011;18697;42.770;23.400;2023-01-29T01:32:05;19.63;;;12.50;;
32196;SDS011;18697;42.770;23.400;2023-01-29T01:34:30;21.83;;;12.68;;
32196;SDS011;18697;42.770;23.400;2023-01-29T01:36:55;23.20;;;12.20;;
32196;SDS011;18697;42.770;23.400;2023-01-29T01:39:21;19.05;;;11.93;;
32196;SDS011;18697;42.770;23.400;2023-01-29T01:41:48;19.90;;;11.65;;
32196;SDS011;18697;42.770;23.400;2023-01-29T01:47:18;16.92;;;11.73;;
32196;SDS011;18697;42.770;23.400;2023-01-29T01:49:48;21.38;;;12.35;;
32196;SDS011;18697;42.770;23.400;2023-01-29T01:52:13;19.00;;;11.35;;
32196;SDS011;18697;42.770;23.400;2023-01-29T01:54:41;19.05;;;11.10;;
32196;SDS011;18697;42.770;23.400;2023-01-29T01:57:09;18.95;;;11.63;;
32196;SDS011;18697;42.770;23.400;2023-01-29T01:59:47;21.50;;;10.90;;
32196;SDS011;18697;42.770;23.400;2023-01-29T02:02:17;18.20;;;11.60;;
32196;SDS011;18697;42.770;23.400;2023-01-29T02:05:02;18.05;;;10.57;;
32196;SDS011;18697;42.770;23.400;2023-01-29T02:07:47;19.70;;;10.90;;
32196;SDS011;18697;42.770;23.400;2023-01-29T02:10:45;18.63;;;10.82;;
32196;SDS011;18697;42.770;23.400;2023-01-29T02:13:13;17.58;;;10.90;;
32196;SDS011;18697;42.770;23.400;2023-01-29T02:15:42;18.48;;;11.80;;
32196;SDS011;18697;42.770;23.400;2023-01-29T02:18:11;17.30;;;11.13;;
32196;SDS011;18697;42.770;23.400;2023-01-29T02:20:38;17.80;;;10.82;;
32196;SDS011;18697;42.770;23.400;2023-01-29T02:31:18;19.98;;;10.65;;
32196;SDS011;18697;42.770;23.400;2023-01-29T02:34:05;18.70;;;10.52;;
32196;SDS011;18697;42.770;23.400;2023-01-29T02:47:20;17.45;;;11.20;;
32196;SDS011;18697;42.770;23.400;2023-01-29T02:50:01;20.55;;;11.27;;
32196;SDS011;18697;42.770;23.400;2023-01-29T02:52:41;17.65;;;10.90;;
32196;SDS011;18697;42.770;23.400;2023-01-29T02:55:16;19.17;;;11.55;;
32196;SDS011;18697;42.770;23.400;2023-01-29T02:58:46;16.90;;;11.43;;
32196;SDS011;18697;42.770;23.400;2023-01-29T03:01:11;15.52;;;10.40;;
32196;SDS011;18697;42.770;23.400;2023-01-29T03:03:42;17.58;;;10.40;;
32196;SDS011;18697;42.770;23.400;2023-01-29T03:08:44;16.10;;;10.02;;
32196;SDS011;18697;42.770;23.400;2023-01-29T03:11:16;17.65;;;10.48;;
32196;SDS011;18697;42.770;23.400;2023-01-29T03:16:21;19.65;;;10.18;;
32196;SDS011;18697;42.770;23.400;2023-01-29T03:18:51;16.00;;;9.23;;
32196;SDS011;18697;42.770;23.400;2023-01-29T03:21:29;17.55;;;9.98;;
32196;SDS011;18697;42.770;23.400;2023-01-29T03:24:17;16.20;;;9.52;;
32196;SDS011;18697;42.770;23.400;2023-01-29T03:27:07;16.25;;;9.90;;
32196;SDS011;18697;42.770;23.400;2023-01-29T03:29:53;12.23;;;8.90;;
32196;SDS011;18697;42.770;23.400;2023-01-29T03:32:38;14.52;;;9.15;;
32196;SDS011;18697;42.770;23.400;2023-01-29T03:35:05;13.25;;;8.40;;
32196;SDS011;18697;42.770;23.400;2023-01-29T03:40:09;13.05;;;8.57;;
32196;SDS011;18697;42.770;23.400;2023-01-29T03:42:52;11.93;;;8.50;;
32196;SDS011;18697;42.770;23.400;2023-01-29T03:50:53;14.85;;;9.98;;
32196;SDS011;18697;42.770;23.400;2023-01-29T03:56:16;13.20;;;8.60;;
32196;SDS011;18697;42.770;23.400;2023-01-29T04:02:14;30.52;;;16.25;;
32196;SDS011;18697;42.770;23.400;2023-01-29T04:06:56;16.40;;;9.07;;
32196;SDS011;18697;42.770;23.400;2023-01-29T04:09:30;13.85;;;8.70;;
32196;SDS011;18697;42.770;23.400;2023-01-29T04:12:08;11.70;;;7.82;;
32196;SDS011;18697;42.770;23.400;2023-01-29T04:14:35;12.13;;;8.02;;
32196;SDS011;18697;42.770;23.400;2023-01-29T04:17:03;16.20;;;9.70;;
32196;SDS011;18697;42.770;23.400;2023-01-29T04:19:33;16.15;;;9.38;;
32196;SDS011;18697;42.770;23.400;2023-01-29T04:22:10;17.73;;;10.27;;
32196;SDS011;18697;42.770;23.400;2023-01-29T04:24:49;14.27;;;8.98;;
32196;SDS011;18697;42.770;23.400;2023-01-29T04:27:19;14.90;;;8.60;;
32196;SDS011;18697;42.770;23.400;2023-01-29T04:30:00;23.05;;;11.32;;
32196;SDS011;18697;42.770;23.400;2023-01-29T04:38:00;15.07;;;8.73;;
32196;SDS011;18697;42.770;23.400;2023-01-29T04:40:49;12.55;;;8.60;;
32196;SDS011;18697;42.770;23.400;2023-01-29T04:50:50;11.50;;;7.80;;
32196;SDS011;18697;42.770;23.400;2023-01-29T04:56:05;13.23;;;8.63;;
32196;SDS011;18697;42.770;23.400;2023-01-29T04:58:33;12.63;;;8.27;;
32196;SDS011;18697;42.770;23.400;2023-01-29T05:01:05;15.38;;;10.18;;
32196;SDS011;18697;42.770;23.400;2023-01-29T05:03:35;16.55;;;12.23;;
32196;SDS011;18697;42.770;23.400;2023-01-29T05:06:03;15.95;;;10.73;;
32196;SDS011;18697;42.770;23.400;2023-01-29T05:08:30;13.32;;;9.13;;
32196;SDS011;18697;42.770;23.400;2023-01-29T05:10:59;12.63;;;9.10;;
32196;SDS011;18697;42.770;23.400;2023-01-29T05:13:24;14.43;;;8.75;;
32196;SDS011;18697;42.770;23.400;2023-01-29T05:15:54;12.82;;;8.05;;
32196;SDS011;18697;42.770;23.400;2023-01-29T05:18:24;11.73;;;8.45;;
32196;SDS011;18697;42.770;23.400;2023-01-29T05:20:50;15.07;;;10.90;;
32196;SDS011;18697;42.770;23.400;2023-01-29T05:23:17;12.55;;;9.40;;
32196;SDS011;18697;42.770;23.400;2023-01-29T05:25:46;12.45;;;8.88;;
32196;SDS011;18697;42.770;23.400;2023-01-29T05:28:13;12.95;;;8.60;;
32196;SDS011;18697;42.770;23.400;2023-01-29T05:30:48;12.13;;;8.50;;
32196;SDS011;18697;42.770;23.400;2023-01-29T05:33:25;13.60;;;8.88;;
32196;SDS011;18697;42.770;23.400;2023-01-29T05:35:53;10.70;;;7.97;;
32196;SDS011;18697;42.770;23.400;2023-01-29T05:38:19;12.75;;;8.32;;
32196;SDS011;18697;42.770;23.400;2023-01-29T05:40:45;12.75;;;8.15;;
32196;SDS011;18697;42.770;23.400;2023-01-29T05:45:54;12.93;;;7.88;;
32196;SDS011;18697;42.770;23.400;2023-01-29T05:48:21;12.02;;;8.65;;
32196;SDS011;18697;42.770;23.400;2023-01-29T05:50:47;12.25;;;9.30;;
32196;SDS011;18697;42.770;23.400;2023-01-29T05:53:13;13.43;;;8.38;;
32196;SDS011;18697;42.770;23.400;2023-01-29T05:55:38;14.15;;;9.18;;
32196;SDS011;18697;42.770;23.400;2023-01-29T05:58:04;15.65;;;9.40;;
32196;SDS011;18697;42.770;23.400;2023-01-29T06:00:30;12.88;;;8.88;;
32196;SDS011;18697;42.770;23.400;2023-01-29T06:02:56;13.25;;;8.35;;
32196;SDS011;18697;42.770;23.400;2023-01-29T06:05:22;16.95;;;8.60;;
32196;SDS011;18697;42.770;23.400;2023-01-29T06:07:48;14.35;;;8.77;;
32196;SDS011;18697;42.770;23.400;2023-01-29T06:10:14;13.07;;;9.15;;
32196;SDS011;18697;42.770;23.400;2023-01-29T06:12:42;13.93;;;9.73;;
32196;SDS011;18697;42.770;23.400;2023-01-29T06:15:08;13.90;;;9.05;;
32196;SDS011;18697;42.770;23.400;2023-01-29T06:17:34;13.80;;;9.80;;
32196;SDS011;18697;42.770;23.400;2023-01-29T06:19:59;10.80;;;8.38;;
32196;SDS011;18697;42.770;23.400;2023-01-29T06:22:25;14.18;;;9.20;;
32196;SDS011;18697;42.770;23.400;2023-01-29T06:24:50;16.25;;;10.48;;
32196;SDS011;18697;42.770;23.400;2023-01-29T06:27:15;14.98;;;9.85;;
32196;SDS011;18697;42.770;23.400;2023-01-29T06:29:41;14.98;;;10.18;;
32196;SDS011;18697;42.770;23.400;2023-01-29T06:32:06;15.57;;;10.50;;
32196;SDS011;18697;42.770;23.400;2023-01-29T06:34:31;18.63;;;11.77;;
32196;SDS011;18697;42.770;23.400;2023-01-29T06:36:57;15.85;;;10.60;;
32196;SDS011;18697;42.770;23.400;2023-01-29T06:39:22;17.35;;;10.25;;
32196;SDS011;18697;42.770;23.400;2023-01-29T06:41:47;17.90;;;11.68;;
32196;SDS011;18697;42.770;23.400;2023-01-29T06:44:13;29.75;;;18.52;;
32196;SDS011;18697;42.770;23.400;2023-01-29T06:46:38;21.48;;;12.50;;
32196;SDS011;18697;42.770;23.400;2023-01-29T06:49:03;15.80;;;11.27;;
32196;SDS011;18697;42.770;23.400;2023-01-29T06:51:29;19.23;;;12.50;;
32196;SDS011;18697;42.770;23.400;2023-01-29T06:53:54;27.63;;;14.57;;
32196;SDS011;18697;42.770;23.400;2023-01-29T06:56:20;18.70;;;12.05;;
32196;SDS011;18697;42.770;23.400;2023-01-29T06:58:47;19.00;;;11.95;;
32196;SDS011;18697;42.770;23.400;2023-01-29T07:01:12;20.05;;;12.90;;
32196;SDS011;18697;42.770;23.400;2023-01-29T07:03:37;19.23;;;12.30;;
32196;SDS011;18697;42.770;23.400;2023-01-29T07:06:03;23.25;;;13.60;;
32196;SDS011;18697;42.770;23.400;2023-01-29T07:08:30;21.85;;;14.20;;
32196;SDS011;18697;42.770;23.400;2023-01-29T07:10:58;21.83;;;14.32;;
32196;SDS011;18697;42.770;23.400;2023-01-29T07:13:25;20.55;;;13.43;;
32196;SDS011;18697;42.770;23.400;2023-01-29T07:15:51;23.27;;;15.48;;
32196;SDS011;18697;42.770;23.400;2023-01-29T07:18:16;23.67;;;14.57;;
32196;SDS011;18697;42.770;23.400;2023-01-29T07:20:42;21.67;;;13.80;;
32196;SDS011;18697;42.770;23.400;2023-01-29T07:23:08;28.25;;;14.80;;
32196;SDS011;18697;42.770;23.400;2023-01-29T07:25:36;26.00;;;14.23;;
32196;SDS011;18697;42.770;23.400;2023-01-29T07:28:02;26.85;;;15.70;;
32196;SDS011;18697;42.770;23.400;2023-01-29T07:30:27;22.85;;;14.95;;
32196;SDS011;18697;42.770;23.400;2023-01-29T07:32:53;23.50;;;14.52;;
32196;SDS011;18697;42.770;23.400;2023-01-29T07:35:19;20.88;;;13.30;;
32196;SDS011;18697;42.770;23.400;2023-01-29T07:37:47;21.73;;;12.82;;
32196;SDS011;18697;42.770;23.400;2023-01-29T07:40:13;22.77;;;12.82;;
32196;SDS011;18697;42.770;23.400;2023-01-29T07:42:38;23.90;;;13.30;;
32196;SDS011;18697;42.770;23.400;2023-01-29T07:45:06;18.42;;;12.45;;
32196;SDS011;18697;42.770;23.400;2023-01-29T07:47:32;19.58;;;12.48;;
32196;SDS011;18697;42.770;23.400;2023-01-29T07:49:57;17.13;;;11.50;;
32196;SDS011;18697;42.770;23.400;2023-01-29T07:52:23;16.17;;;11.05;;
32196;SDS011;18697;42.770;23.400;2023-01-29T07:54:48;25.48;;;15.43;;
32196;SDS011;18697;42.770;23.400;2023-01-29T07:57:13;19.45;;;12.60;;
32196;SDS011;18697;42.770;23.400;2023-01-29T07:59:39;19.20;;;13.05;;
32196;SDS011;18697;42.770;23.400;2023-01-29T08:02:04;22.13;;;12.75;;
32196;SDS011;18697;42.770;23.400;2023-01-29T08:04:30;24.75;;;12.05;;
32196;SDS011;18697;42.770;23.400;2023-01-29T08:06:55;20.88;;;12.82;;
32196;SDS011;18697;42.770;23.400;2023-01-29T08:09:20;26.85;;;13.70;;
32196;SDS011;18697;42.770;23.400;2023-01-29T08:11:46;24.15;;;13.20;;
32196;SDS011;18697;42.770;23.400;2023-01-29T08:14:11;23.02;;;12.95;;
32196;SDS011;18697;42.770;23.400;2023-01-29T08:16:36;18.30;;;12.27;;
32196;SDS011;18697;42.770;23.400;2023-01-29T08:19:02;18.95;;;12.75;;
32196;SDS011;18697;42.770;23.400;2023-01-29T08:21:27;21.73;;;11.77;;
32196;SDS011;18697;42.770;23.400;2023-01-29T08:23:53;18.00;;;11.48;;
32196;SDS011;18697;42.770;23.400;2023-01-29T08:26:18;29.95;;;17.92;;
32196;SDS011;18697;42.770;23.400;2023-01-29T08:28:44;53.38;;;25.33;;
32196;SDS011;18697;42.770;23.400;2023-01-29T08:31:15;29.98;;;17.25;;
32196;SDS011;18697;42.770;23.400;2023-01-29T08:33:42;34.13;;;18.38;;
32196;SDS011;18697;42.770;23.400;2023-01-29T08:36:07;31.25;;;17.88;;
32196;SDS011;18697;42.770;23.400;2023-01-29T08:38:33;66.38;;;38.65;;
32196;SDS011;18697;42.770;23.400;2023-01-29T08:40:58;40.25;;;21.35;;
32196;SDS011;18697;42.770;23.400;2023-01-29T08:43:24;67.97;;;34.20;;
32196;SDS011;18697;42.770;23.400;2023-01-29T08:45:49;25.55;;;15.40;;
32196;SDS011;18697;42.770;23.400;2023-01-29T08:48:15;57.55;;;30.02;;
32196;SDS011;18697;42.770;23.400;2023-01-29T08:50:40;44.25;;;22.52;;
32196;SDS011;18697;42.770;23.400;2023-01-29T08:53:06;60.58;;;30.90;;
32196;SDS011;18697;42.770;23.400;2023-01-29T08:55:34;80.10;;;37.72;;
32196;SDS011;18697;42.770;23.400;2023-01-29T08:58:02;82.40;;;38.13;;
32196;SDS011;18697;42.770;23.400;2023-01-29T09:00:29;45.88;;;23.10;;
32196;SDS011;18697;42.770;23.400;2023-01-29T09:02:55;76.38;;;33.05;;
32196;SDS011;18697;42.770;23.400;2023-01-29T09:05:20;54.70;;;27.40;;
32196;SDS011;18697;42.770;23.400;2023-01-29T09:07:45;34.63;;;18.50;;
32196;SDS011;18697;42.770;23.400;2023-01-29T09:10:11;55.72;;;26.27;;
32196;SDS011;18697;42.770;23.400;2023-01-29T09:12:37;97.50;;;34.67;;
32196;SDS011;18697;42.770;23.400;2023-01-29T09:15:02;59.13;;;24.20;;
32196;SDS011;18697;42.770;23.400;2023-01-29T09:17:28;57.72;;;23.10;;
32196;SDS011;18697;42.770;23.400;2023-01-29T09:19:53;58.05;;;24.58;;
32196;SDS011;18697;42.770;23.400;2023-01-29T09:22:19;54.25;;;23.60;;
32196;SDS011;18697;42.770;23.400;2023-01-29T09:24:44;46.75;;;21.02;;
32196;SDS011;18697;42.770;23.400;2023-01-29T09:27:10;103.55;;;39.35;;
32196;SDS011;18697;42.770;23.400;2023-01-29T09:29:35;114.65;;;42.30;;
32196;SDS011;18697;42.770;23.400;2023-01-29T09:32:02;62.30;;;25.20;;
32196;SDS011;18697;42.770;23.400;2023-01-29T09:34:28;48.92;;;23.60;;
32196;SDS011;18697;42.770;23.400;2023-01-29T09:36:53;124.30;;;45.78;;
32196;SDS011;18697;42.770;23.400;2023-01-29T09:39:19;44.85;;;23.88;;
32196;SDS011;18697;42.770;23.400;2023-01-29T09:45:14;53.58;;;24.48;;
32196;SDS011;18697;42.770;23.400;2023-01-29T09:47:19;81.95;;;35.03;;
32196;SDS011;18697;42.770;23.400;2023-01-29T09:49:54;92.10;;;37.42;;
32196;SDS011;18697;42.770;23.400;2023-01-29T09:52:23;88.65;;;33.88;;
32196;SDS011;18697;42.770;23.400;2023-01-29T09:57:25;79.18;;;31.48;;
32196;SDS011;18697;42.770;23.400;2023-01-29T09:59:57;106.85;;;40.95;;
32196;SDS011;18697;42.770;23.400;2023-01-29T10:05:27;73.00;;;32.13;;
32196;SDS011;18697;42.770;23.400;2023-01-29T10:14:13;120.65;;;50.10;;
32196;SDS011;18697;42.770;23.400;2023-01-29T10:24:59;96.72;;;40.35;;
32196;SDS011;18697;42.770;23.400;2023-01-29T10:27:34;91.93;;;40.08;;
32196;SDS011;18697;42.770;23.400;2023-01-29T10:30:05;51.92;;;24.67;;
32196;SDS011;18697;42.770;23.400;2023-01-29T10:32:35;59.10;;;27.90;;
32196;SDS011;18697;42.770;23.400;2023-01-29T10:35:02;100.65;;;41.47;;
32196;SDS011;18697;42.770;23.400;2023-01-29T10:37:44;92.22;;;39.20;;
32196;SDS011;18697;42.770;23.400;2023-01-29T10:40:17;59.67;;;28.10;;
32196;SDS011;18697;42.770;23.400;2023-01-29T10:42:49;79.53;;;34.65;;
32196;SDS011;18697;42.770;23.400;2023-01-29T10:48:08;81.85;;;33.13;;
32196;SDS011;18697;42.770;23.400;2023-01-29T10:50:45;63.92;;;29.13;;
32196;SDS011;18697;42.770;23.400;2023-01-29T11:01:08;42.67;;;21.60;;
32196;SDS011;18697;42.770;23.400;2023-01-29T11:03:34;46.28;;;23.20;;
32196;SDS011;18697;42.770;23.400;2023-01-29T11:06:02;44.55;;;21.27;;
32196;SDS011;18697;42.770;23.400;2023-01-29T11:08:41;35.45;;;19.50;;
32196;SDS011;18697;42.770;23.400;2023-01-29T11:11:17;49.53;;;22.85;;
32196;SDS011;18697;42.770;23.400;2023-01-29T11:13:53;35.10;;;19.50;;
32196;SDS011;18697;42.770;23.400;2023-01-29T11:16:22;33.55;;;19.35;;
32196;SDS011;18697;42.770;23.400;2023-01-29T11:18:49;39.58;;;20.45;;
32196;SDS011;18697;42.770;23.400;2023-01-29T11:21:16;29.63;;;18.23;;
32196;SDS011;18697;42.770;23.400;2023-01-29T11:23:41;28.98;;;16.95;;
32196;SDS011;18697;42.770;23.400;2023-01-29T11:26:07;25.10;;;16.13;;
32196;SDS011;18697;42.770;23.400;2023-01-29T11:28:40;32.63;;;17.80;;
32196;SDS011;18697;42.770;23.400;2023-01-29T11:31:17;26.95;;;15.35;;
32196;SDS011;18697;42.770;23.400;2023-01-29T11:33:51;36.75;;;19.90;;
32196;SDS011;18697;42.770;23.400;2023-01-29T11:36:37;39.20;;;18.92;;
32196;SDS011;18697;42.770;23.400;2023-01-29T11:39:14;46.38;;;21.45;;
32196;SDS011;18697;42.770;23.400;2023-01-29T11:41:43;30.02;;;16.02;;
32196;SDS011;18697;42.770;23.400;2023-01-29T11:44:18;51.65;;;24.40;;
32196;SDS011;18697;42.770;23.400;2023-01-29T11:46:45;45.35;;;22.80;;
32196;SDS011;18697;42.770;23.400;2023-01-29T11:49:19;30.75;;;18.38;;
32196;SDS011;18697;42.770;23.400;2023-01-29T11:51:50;49.40;;;24.20;;
32196;SDS011;18697;42.770;23.400;2023-01-29T11:54:19;52.92;;;24.00;;
32196;SDS011;18697;42.770;23.400;2023-01-29T11:56:49;54.05;;;23.30;;
32196;SDS011;18697;42.770;23.400;2023-01-29T11:59:39;62.30;;;27.40;;
32196;SDS011;18697;42.770;23.400;2023-01-29T12:07:44;68.32;;;29.52;;
32196;SDS011;18697;42.770;23.400;2023-01-29T12:13:08;49.85;;;24.15;;
32196;SDS011;18697;42.770;23.400;2023-01-29T12:15:46;42.30;;;21.50;;
32196;SDS011;18697;42.770;23.400;2023-01-29T12:18:19;35.38;;;18.60;;
32196;SDS011;18697;42.770;23.400;2023-01-29T12:20:57;30.55;;;16.95;;
32196;SDS011;18697;42.770;23.400;2023-01-29T12:23:27;27.65;;;17.33;;
32196;SDS011;18697;42.770;23.400;2023-01-29T12:26:09;32.55;;;19.38;;
32196;SDS011;18697;42.770;23.400;2023-01-29T12:39:52;27.58;;;15.70;;
32196;SDS011;18697;42.770;23.400;2023-01-29T12:42:19;38.00;;;20.42;;
32196;SDS011;18697;42.770;23.400;2023-01-29T12:45:00;43.83;;;21.45;;
32196;SDS011;18697;42.770;23.400;2023-01-29T12:47:30;82.63;;;32.95;;
32196;SDS011;18697;42.770;23.400;2023-01-29T12:50:02;101.97;;;39.13;;
32196;SDS011;18697;42.770;23.400;2023-01-29T12:55:40;42.58;;;19.33;;
32196;SDS011;18697;42.770;23.400;2023-01-29T12:58:11;101.07;;;32.25;;
32196;SDS011;18697;42.770;23.400;2023-01-29T13:00:42;43.30;;;19.35;;
32196;SDS011;18697;42.770;23.400;2023-01-29T13:03:28;40.80;;;18.92;;
32196;SDS011;18697;42.770;23.400;2023-01-29T13:06:11;93.35;;;33.97;;
32196;SDS011;18697;42.770;23.400;2023-01-29T13:08:50;68.40;;;26.25;;
32196;SDS011;18697;42.770;23.400;2023-01-29T13:11:20;34.30;;;17.30;;
32196;SDS011;18697;42.770;23.400;2023-01-29T13:13:58;46.00;;;20.33;;
32196;SDS011;18697;42.770;23.400;2023-01-29T13:16:32;43.33;;;20.67;;
32196;SDS011;18697;42.770;23.400;2023-01-29T13:19:04;73.32;;;29.48;;
32196;SDS011;18697;42.770;23.400;2023-01-29T13:21:39;42.60;;;20.17;;
32196;SDS011;18697;42.770;23.400;2023-01-29T13:26:43;51.80;;;22.42;;
32196;SDS011;18697;42.770;23.400;2023-01-29T13:29:43;45.25;;;20.58;;
32196;SDS011;18697;42.770;23.400;2023-01-29T13:32:02;60.97;;;25.00;;
32196;SDS011;18697;42.770;23.400;2023-01-29T13:34:33;60.75;;;26.83;;
32196;SDS011;18697;42.770;23.400;2023-01-29T13:37:08;67.50;;;27.48;;
32196;SDS011;18697;42.770;23.400;2023-01-29T13:39:39;27.63;;;15.40;;
32196;SDS011;18697;42.770;23.400;2023-01-29T13:44:47;37.05;;;17.38;;
32196;SDS011;18697;42.770;23.400;2023-01-29T13:50:22;36.42;;;17.58;;
32196;SDS011;18697;42.770;23.400;2023-01-29T13:53:01;40.33;;;20.15;;
32196;SDS011;18697;42.770;23.400;2023-01-29T13:55:29;45.50;;;22.40;;
32196;SDS011;18697;42.770;23.400;2023-01-29T13:58:00;47.97;;;22.33;;
32196;SDS011;18697;42.770;23.400;2023-01-29T14:10:38;41.22;;;18.98;;
32196;SDS011;18697;42.770;23.400;2023-01-29T14:15:42;67.78;;;29.23;;
32196;SDS011;18697;42.770;23.400;2023-01-29T14:18:27;42.08;;;19.95;;
32196;SDS011;18697;42.770;23.400;2023-01-29T14:20:58;49.17;;;22.02;;
32196;SDS011;18697;42.770;23.400;2023-01-29T14:28:56;49.72;;;24.38;;
32196;SDS011;18697;42.770;23.400;2023-01-29T14:31:29;42.10;;;21.02;;
32196;SDS011;18697;42.770;23.400;2023-01-29T14:34:01;44.10;;;19.55;;
32196;SDS011;18697;42.770;23.400;2023-01-29T14:36:28;51.22;;;22.40;;
32196;SDS011;18697;42.770;23.400;2023-01-29T14:39:02;47.45;;;21.85;;
32196;SDS011;18697;42.770;23.400;2023-01-29T14:41:29;65.60;;;24.70;;
32196;SDS011;18697;42.770;23.400;2023-01-29T14:47:00;64.72;;;25.90;;
32196;SDS011;18697;42.770;23.400;2023-01-29T14:52:16;45.83;;;21.45;;
32196;SDS011;18697;42.770;23.400;2023-01-29T14:54:45;47.95;;;24.23;;
32196;SDS011;18697;42.770;23.400;2023-01-29T14:57:13;44.97;;;22.33;;
32196;SDS011;18697;42.770;23.400;2023-01-29T14:59:55;47.50;;;22.27;;
32196;SDS011;18697;42.770;23.400;2023-01-29T15:02:25;47.03;;;22.88;;
32196;SDS011;18697;42.770;23.400;2023-01-29T15:05:00;39.88;;;20.45;;
32196;SDS011;18697;42.770;23.400;2023-01-29T15:07:33;36.13;;;20.23;;
32196;SDS011;18697;42.770;23.400;2023-01-29T15:10:25;52.78;;;25.13;;
32196;SDS011;18697;42.770;23.400;2023-01-29T15:13:00;48.85;;;23.42;;
32196;SDS011;18697;42.770;23.400;2023-01-29T15:15:36;42.33;;;21.83;;
32196;SDS011;18697;42.770;23.400;2023-01-29T15:20:37;45.42;;;19.80;;
32196;SDS011;18697;42.770;23.400;2023-01-29T15:25:49;43.03;;;22.88;;
32196;SDS011;18697;42.770;23.400;2023-01-29T15:28:16;44.13;;;21.95;;
32196;SDS011;18697;42.770;23.400;2023-01-29T15:30:41;46.85;;;22.98;;
32196;SDS011;18697;42.770;23.400;2023-01-29T15:33:08;48.38;;;25.90;;
32196;SDS011;18697;42.770;23.400;2023-01-29T15:35:39;52.65;;;25.25;;
32196;SDS011;18697;42.770;23.400;2023-01-29T15:38:13;74.05;;;29.63;;
32196;SDS011;18697;42.770;23.400;2023-01-29T15:43:27;66.07;;;30.35;;
32196;SDS011;18697;42.770;23.400;2023-01-29T15:46:05;107.40;;;37.30;;
32196;SDS011;18697;42.770;23.400;2023-01-29T15:48:36;57.17;;;26.25;;
32196;SDS011;18697;42.770;23.400;2023-01-29T15:51:09;70.07;;;28.98;;
32196;SDS011;18697;42.770;23.400;2023-01-29T15:53:58;63.78;;;25.05;;
32196;SDS011;18697;42.770;23.400;2023-01-29T15:56:36;52.85;;;25.13;;
32196;SDS011;18697;42.770;23.400;2023-01-29T15:59:04;60.47;;;23.13;;
32196;SDS011;18697;42.770;23.400;2023-01-29T16:01:32;46.65;;;21.52;;
32196;SDS011;18697;42.770;23.400;2023-01-29T16:03:57;45.72;;;22.17;;
32196;SDS011;18697;42.770;23.400;2023-01-29T16:06:28;51.00;;;21.27;;
32196;SDS011;18697;42.770;23.400;2023-01-29T16:09:01;50.53;;;21.40;;
32196;SDS011;18697;42.770;23.400;2023-01-29T16:11:28;47.03;;;21.70;;
32196;SDS011;18697;42.770;23.400;2023-01-29T16:13:54;40.88;;;19.75;;
32196;SDS011;18697;42.770;23.400;2023-01-29T16:16:22;44.92;;;19.73;;
32196;SDS011;18697;42.770;23.400;2023-01-29T16:18:50;42.53;;;21.33;;
32196;SDS011;18697;42.770;23.400;2023-01-29T16:21:20;41.45;;;21.65;;
32196;SDS011;18697;42.770;23.400;2023-01-29T16:23:51;40.03;;;19.90;;
32196;SDS011;18697;42.770;23.400;2023-01-29T16:26:21;44.33;;;22.23;;
32196;SDS011;18697;42.770;23.400;2023-01-29T16:28:52;41.17;;;19.85;;
32196;SDS011;18697;42.770;23.400;2023-01-29T16:31:22;52.05;;;23.95;;
32196;SDS011;18697;42.770;23.400;2023-01-29T16:33:51;46.25;;;21.33;;
32196;SDS011;18697;42.770;23.400;2023-01-29T16:36:18;48.83;;;24.92;;
32196;SDS011;18697;42.770;23.400;2023-01-29T16:38:49;40.85;;;21.75;;
32196;SDS011;18697;42.770;23.400;2023-01-29T16:43:49;47.70;;;20.50;;
32196;SDS011;18697;42.770;23.400;2023-01-29T16:46:31;44.60;;;21.67;;
32196;SDS011;18697;42.770;23.400;2023-01-29T16:48:58;45.25;;;21.80;;
32196;SDS011;18697;42.770;23.400;2023-01-29T16:51:25;63.67;;;25.45;;
32196;SDS011;18697;42.770;23.400;2023-01-29T16:53:54;54.90;;;22.40;;
32196;SDS011;18697;42.770;23.400;2023-01-29T16:56:44;48.70;;;20.33;;
32196;SDS011;18697;42.770;23.400;2023-01-29T16:59:32;37.67;;;20.05;;
32196;SDS011;18697;42.770;23.400;2023-01-29T17:01:59;46.63;;;20.30;;
32196;SDS011;18697;42.770;23.400;2023-01-29T17:04:25;42.25;;;19.85;;
32196;SDS011;18697;42.770;23.400;2023-01-29T17:06:55;42.13;;;20.75;;
32196;SDS011;18697;42.770;23.400;2023-01-29T17:09:24;37.88;;;18.77;;